createdAt,value
2023-03-31T05:30:31.699Z,9.88
2023-03-31T05:32:59.361Z,10.45
2023-03-31T05:35:26.894Z,8.15
2023-03-31T05:37:54.489Z,9.82
2023-03-31T05:40:22.008Z,11.68
2023-03-31T05:42:50.516Z,9.93
2023-03-31T05:45:17.932Z,11.35
2023-03-31T05:47:45.627Z,9.05
2023-03-31T05:50:14.792Z,7.82
2023-03-31T05:52:42.646Z,9.80
2023-03-31T05:55:10.890Z,13.32
2023-03-31T05:57:41.238Z,11.80
2023-03-31T06:00:11.342Z,9.02
2023-03-31T06:02:39.327Z,13.10
2023-03-31T06:05:07.903Z,9.70
2023-03-31T06:07:36.195Z,13.60
2023-03-31T06:10:04.156Z,17.35
2023-03-31T06:12:32.665Z,12.48
2023-03-31T06:15:00.119Z,12.35
2023-03-31T06:17:29.536Z,16.67
2023-03-31T06:19:59.748Z,9.05
2023-03-31T06:22:28.096Z,14.15
2023-03-31T06:24:56.580Z,8.43
2023-03-31T06:27:24.634Z,10.52
2023-03-31T06:29:53.734Z,14.20
2023-03-31T06:32:23.994Z,13.82
2023-03-31T06:34:55.360Z,12.20
2023-03-31T06:37:23.039Z,9.45
2023-03-31T06:39:51.103Z,13.68
2023-03-31T06:42:18.948Z,11.35
2023-03-31T06:44:46.466Z,8.38
2023-03-31T06:47:14.093Z,7.20
2023-03-31T06:49:42.439Z,12.18
2023-03-31T06:52:10.162Z,5.07
2023-03-31T06:54:40.144Z,11.25
2023-03-31T06:57:10.035Z,6.72
2023-03-31T06:59:38.407Z,3.78
2023-03-31T07:02:07.060Z,8.18
2023-03-31T07:04:39.458Z,10.63
2023-03-31T07:07:07.563Z,7.80
2023-03-31T07:09:35.615Z,4.35
2023-03-31T07:12:07.251Z,7.80
2023-03-31T07:14:35.415Z,3.25
2023-03-31T07:17:03.456Z,3.88
2023-03-31T07:19:31.244Z,7.75
2023-03-31T07:21:58.824Z,1.60
2023-03-31T07:24:26.954Z,3.55
2023-03-31T07:26:54.558Z,4.50
2023-03-31T07:29:22.497Z,2.72
2023-03-31T07:31:50.972Z,4.03
2023-03-31T07:34:38.470Z,3.63
2023-03-31T07:37:29.094Z,1.45
2023-03-31T07:40:09.338Z,2.33
2023-03-31T07:42:47.855Z,2.72
2023-03-31T07:45:17.495Z,1.92
2023-03-31T07:47:51.396Z,2.40
2023-03-31T07:50:26.777Z,4.90
2023-03-31T07:52:56.004Z,5.85
2023-03-31T07:55:27.652Z,4.63
2023-03-31T07:57:56.945Z,3.08
2023-03-31T08:00:39.294Z,5.45
2023-03-31T08:03:20.113Z,6.10
2023-03-31T08:05:53.299Z,7.80
2023-03-31T08:08:25.744Z,6.40
2023-03-31T08:11:00.754Z,10.40
2023-03-31T08:13:29.485Z,7.05
2023-03-31T08:15:57.291Z,3.92
2023-03-31T08:18:25.782Z,4.65
2023-03-31T08:20:53.885Z,4.82
2023-03-31T08:23:29.370Z,2.33
2023-03-31T08:33:27.966Z,5.53
2023-03-31T08:36:17.700Z,5.45
2023-03-31T08:38:47.631Z,7.00
2023-03-31T08:41:35.736Z,5.15
2023-03-31T08:44:28.150Z,3.63
2023-03-31T08:46:58.906Z,1.70
2023-03-31T08:49:29.660Z,2.20
2023-03-31T08:52:15.200Z,5.50
2023-03-31T08:54:59.761Z,3.30
2023-03-31T08:58:36.208Z,3.50
2023-03-31T09:01:55.495Z,6.68
2023-03-31T09:05:29.386Z,4.82
2023-03-31T09:08:30.185Z,4.10
2023-03-31T09:11:28.411Z,3.17
2023-03-31T09:14:23.830Z,6.25
2023-03-31T09:17:22.414Z,5.03
2023-03-31T09:20:41.718Z,4.18
2023-03-31T09:23:24.785Z,6.68
2023-03-31T09:26:00.264Z,5.85
2023-03-31T09:32:16.849Z,11.65
2023-03-31T09:38:12.390Z,5.25
2023-03-31T09:40:51.047Z,7.13
2023-03-31T09:43:30.168Z,3.17
2023-03-31T09:46:10.044Z,7.20
2023-03-31T09:48:48.271Z,4.10
2023-03-31T09:51:24.884Z,7.03
2023-03-31T09:54:46.478Z,7.03
2023-03-31T09:57:32.764Z,5.90
2023-03-31T10:00:17.241Z,6.43
2023-03-31T10:03:01.690Z,13.48
2023-03-31T10:05:39.194Z,5.53
2023-03-31T10:08:57.852Z,9.38
2023-03-31T10:11:38.535Z,5.07
2023-03-31T10:14:13.789Z,5.07
2023-03-31T10:16:50.302Z,3.55
2023-03-31T10:19:27.109Z,3.33
2023-03-31T10:22:21.644Z,1.98
2023-03-31T10:25:14.821Z,7.75
2023-03-31T10:27:50.285Z,4.38
2023-03-31T10:30:38.321Z,8.90
2023-03-31T10:33:22.592Z,3.22
2023-03-31T10:36:01.203Z,3.92
2023-03-31T10:38:35.425Z,9.80
2023-03-31T10:41:08.401Z,3.85
2023-03-31T10:43:55.205Z,4.75
2023-03-31T10:47:04.766Z,3.33
2023-03-31T10:49:39.507Z,4.78
2023-03-31T10:52:25.758Z,7.30
2023-03-31T10:54:59.833Z,8.45
2023-03-31T10:57:56.280Z,8.57
2023-03-31T11:00:29.255Z,6.53
2023-03-31T11:05:52.592Z,3.20
2023-03-31T11:08:20.364Z,8.65
2023-03-31T11:11:05.792Z,0.85
2023-03-31T11:14:12.400Z,1.48
2023-03-31T11:17:12.643Z,1.00
2023-03-31T11:20:12.833Z,1.05
2023-03-31T11:23:13.022Z,1.10
2023-03-31T11:25:50.486Z,2.50
2023-03-31T11:28:27.505Z,1.50
2023-03-31T11:31:20.797Z,1.55
2023-03-31T11:34:22.961Z,1.45
2023-03-31T11:37:16.124Z,1.38
2023-03-31T11:40:08.178Z,2.03
2023-03-31T11:42:42.158Z,1.17
2023-03-31T11:45:18.558Z,1.58
2023-03-31T11:47:49.264Z,2.08
2023-03-31T11:50:27.849Z,1.00
2023-03-31T11:53:02.369Z,1.73
2023-03-31T11:55:32.468Z,1.98
2023-03-31T11:58:10.303Z,6.72
2023-03-31T12:00:52.174Z,3.05
2023-03-31T12:03:27.283Z,3.42
2023-03-31T12:06:02.490Z,2.45
2023-03-31T12:08:35.538Z,2.85
2023-03-31T12:13:47.706Z,4.72
2023-03-31T12:16:46.031Z,1.88
2023-03-31T12:19:32.324Z,3.15
2023-03-31T12:22:19.007Z,6.28
2023-03-31T12:24:47.017Z,2.10
2023-03-31T12:27:40.120Z,3.88
2023-03-31T12:30:15.696Z,3.08
2023-03-31T12:32:49.079Z,2.45
2023-03-31T12:35:40.587Z,3.22
2023-03-31T12:38:19.697Z,3.78
2023-03-31T12:41:03.123Z,3.28
2023-03-31T12:43:59.593Z,3.08
2023-03-31T12:46:46.418Z,7.78
2023-03-31T12:49:32.569Z,7.35
2023-03-31T12:52:07.281Z,8.98
2023-03-31T12:54:56.560Z,13.10
2023-03-31T12:57:25.488Z,5.70
2023-03-31T13:00:13.591Z,8.55
2023-03-31T13:02:41.334Z,6.10
2023-03-31T13:05:36.837Z,1.38
2023-03-31T13:08:43.556Z,7.28
2023-03-31T13:11:10.894Z,1.70
2023-03-31T13:16:36.848Z,4.60
2023-03-31T13:19:04.636Z,1.60
2023-03-31T13:21:32.101Z,2.30
2023-03-31T13:24:01.705Z,5.28
2023-03-31T13:26:38.610Z,2.47
2023-03-31T13:29:15.534Z,2.70
2023-03-31T13:32:01.087Z,2.03
2023-03-31T13:34:44.005Z,1.33
2023-03-31T13:37:29.594Z,7.10
2023-03-31T13:40:22.643Z,6.85
2023-03-31T13:42:49.846Z,0.85
2023-03-31T13:45:44.818Z,1.08
2023-03-31T13:48:12.553Z,6.72
2023-03-31T13:51:01.246Z,3.83
2023-03-31T13:53:43.516Z,1.08
2023-03-31T13:56:43.925Z,5.00
2023-03-31T13:59:11.089Z,4.38
2023-03-31T14:02:12.930Z,1.92
2023-03-31T14:04:59.311Z,4.18
2023-03-31T14:07:53.021Z,2.00
2023-03-31T14:10:31.275Z,4.07
2023-03-31T14:13:07.911Z,1.65
2023-03-31T14:15:38.923Z,3.55
2023-03-31T14:18:08.652Z,1.00
2023-03-31T14:20:45.732Z,3.20
2023-03-31T14:23:30.902Z,4.45
2023-03-31T14:26:18.756Z,2.15
2023-03-31T14:29:20.736Z,6.43
2023-03-31T14:31:57.184Z,3.33
2023-03-31T14:34:44.996Z,4.70
2023-03-31T14:37:17.987Z,2.05
2023-03-31T14:42:17.837Z,2.47
2023-03-31T14:44:48.805Z,2.38
2023-03-31T14:47:29.422Z,5.65
2023-03-31T14:50:01.108Z,2.60
2023-03-31T14:52:32.582Z,2.47
2023-03-31T14:55:00.591Z,4.82
2023-03-31T15:00:31.708Z,4.28
2023-03-31T15:03:02.128Z,2.55
2023-03-31T15:05:38.359Z,1.65
2023-03-31T15:08:10.932Z,3.10
2023-03-31T15:10:44.450Z,1.10
2023-03-31T15:13:28.085Z,3.03
2023-03-31T15:15:57.385Z,2.72
2023-03-31T15:18:27.002Z,1.98
2023-03-31T15:20:56.481Z,1.77
2023-03-31T15:23:27.714Z,2.20
2023-03-31T15:26:04.259Z,1.77
2023-03-31T15:28:50.041Z,3.13
2023-03-31T15:31:17.819Z,3.33
2023-03-31T15:33:45.491Z,3.47
2023-03-31T15:36:13.554Z,3.00
2023-03-31T15:38:41.536Z,0.88
2023-03-31T15:41:13.936Z,9.27
2023-03-31T15:44:05.010Z,1.75
2023-03-31T15:46:44.310Z,1.35
2023-03-31T15:49:22.972Z,3.20
2023-03-31T15:51:51.673Z,3.28
2023-03-31T15:54:37.744Z,1.27
2023-03-31T15:57:07.684Z,2.47
